createdAt,value
2022-11-10T00:02:04.710Z,9.40
2022-11-10T00:04:28.663Z,9.40
2022-11-10T00:06:52.620Z,9.40
2022-11-10T00:09:16.816Z,9.20
2022-11-10T00:11:41.090Z,9.30
2022-11-10T00:14:19.888Z,9.20
2022-11-10T00:16:56.606Z,9.30
2022-11-10T00:19:20.602Z,9.30
2022-11-10T00:21:45.775Z,9.30
2022-11-10T00:24:10.084Z,9.20
2022-11-10T00:26:33.981Z,9.20
2022-11-10T00:28:57.968Z,9.20
2022-11-10T00:31:24.680Z,9.20
2022-11-10T00:33:48.406Z,9.10
2022-11-10T00:36:12.287Z,9.00
2022-11-10T00:38:39.612Z,9.10
2022-11-10T00:41:04.323Z,9.10
2022-11-10T00:43:29.600Z,9.10
2022-11-10T00:45:54.018Z,9.20
2022-11-10T00:48:20.701Z,9.20
2022-11-10T00:50:44.742Z,9.10
2022-11-10T00:53:09.189Z,9.00
2022-11-10T00:55:32.936Z,9.00
2022-11-10T00:57:56.808Z,9.00
2022-11-10T01:00:21.002Z,9.00
2022-11-10T01:02:44.939Z,8.90
2022-11-10T01:05:12.720Z,9.00
2022-11-10T01:07:37.234Z,9.00
2022-11-10T01:10:01.192Z,8.90
2022-11-10T01:12:24.879Z,8.90
2022-11-10T01:14:51.122Z,8.90
2022-11-10T01:17:15.125Z,8.90
2022-11-10T01:19:38.808Z,9.00
2022-11-10T01:22:05.460Z,8.90
2022-11-10T01:24:29.255Z,8.90
2022-11-10T01:26:53.029Z,8.90
2022-11-10T01:29:17.738Z,8.90
2022-11-10T01:31:41.953Z,8.80
2022-11-10T01:34:05.906Z,8.70
2022-11-10T01:36:29.836Z,8.70
2022-11-10T01:38:55.856Z,8.50
2022-11-10T01:41:19.767Z,8.40
2022-11-10T01:43:43.908Z,8.50
2022-11-10T01:46:10.178Z,8.50
2022-11-10T01:48:39.086Z,8.50
2022-11-10T01:51:07.091Z,8.50
2022-11-10T01:53:34.119Z,8.50
2022-11-10T01:56:01.339Z,8.40
2022-11-10T01:58:31.792Z,8.40
2022-11-10T02:00:56.353Z,8.40
2022-11-10T02:03:26.919Z,8.40
2022-11-10T02:05:53.345Z,8.40
2022-11-10T02:08:20.613Z,8.40
2022-11-10T02:10:44.579Z,8.20
2022-11-10T02:13:10.835Z,8.20
2022-11-10T02:15:35.202Z,8.20
2022-11-10T02:17:58.870Z,8.30
2022-11-10T02:20:24.216Z,8.40
2022-11-10T02:22:52.490Z,8.50
2022-11-10T02:25:18.703Z,8.40
2022-11-10T02:27:42.416Z,8.50
2022-11-10T02:30:07.874Z,8.50
2022-11-10T02:32:32.062Z,8.50
2022-11-10T02:34:55.790Z,8.50
2022-11-10T02:37:20.052Z,8.50
2022-11-10T02:39:46.052Z,8.50
2022-11-10T02:42:11.227Z,8.50
2022-11-10T02:44:34.901Z,8.50
2022-11-10T02:46:58.926Z,8.50
2022-11-10T02:49:23.012Z,8.40
2022-11-10T02:51:46.615Z,8.40
2022-11-10T02:54:11.045Z,8.40
2022-11-10T02:56:37.965Z,8.40
2022-11-10T02:59:03.313Z,8.40
2022-11-10T03:01:27.207Z,8.30
2022-11-10T03:03:51.383Z,8.30
2022-11-10T03:06:15.374Z,8.40
2022-11-10T03:08:39.423Z,8.40
2022-11-10T03:11:03.358Z,8.30
2022-11-10T03:13:45.374Z,8.40
2022-11-10T03:16:15.447Z,8.30
2022-11-10T03:18:39.165Z,8.30
2022-11-10T03:21:03.354Z,8.20
2022-11-10T03:23:27.070Z,8.20
2022-11-10T03:25:51.502Z,8.10
2022-11-10T03:28:16.578Z,8.20
2022-11-10T03:30:43.097Z,8.20
2022-11-10T03:33:07.230Z,8.20
2022-11-10T03:35:31.858Z,8.20
2022-11-10T03:37:55.160Z,8.20
2022-11-10T03:40:19.549Z,8.20
2022-11-10T03:42:45.855Z,8.20
2022-11-10T03:45:11.853Z,8.20
2022-11-10T03:47:38.238Z,8.20
2022-11-10T03:50:02.021Z,8.10
2022-11-10T03:52:25.721Z,8.10
2022-11-10T03:54:49.598Z,8.10
2022-11-10T03:57:13.580Z,8.10
2022-11-10T03:59:37.557Z,8.10
2022-11-10T04:02:01.669Z,8.10
2022-11-10T04:04:40.126Z,8.00
2022-11-10T04:07:16.081Z,8.00
2022-11-10T04:09:40.505Z,8.00
2022-11-10T04:12:20.713Z,8.00
2022-11-10T04:15:00.348Z,8.00
2022-11-10T04:17:23.664Z,8.00
2022-11-10T04:19:50.060Z,8.00
2022-11-10T04:22:34.257Z,8.00
2022-11-10T04:24:58.162Z,8.00
2022-11-10T04:27:21.666Z,7.90
2022-11-10T04:29:45.704Z,7.90
2022-11-10T04:32:09.614Z,7.90
2022-11-10T04:34:33.277Z,7.80
2022-11-10T04:36:59.660Z,7.70
2022-11-10T04:39:23.602Z,7.80
2022-11-10T04:41:48.182Z,7.80
2022-11-10T04:44:12.410Z,7.80
2022-11-10T04:46:38.569Z,7.80
2022-11-10T04:49:02.659Z,7.70
2022-11-10T04:51:29.870Z,7.70
2022-11-10T04:53:56.753Z,7.70
2022-11-10T04:56:22.715Z,7.70
2022-11-10T04:58:46.666Z,7.70
2022-11-10T05:01:13.331Z,7.70
2022-11-10T05:03:36.855Z,7.70
2022-11-10T05:06:00.935Z,7.70
2022-11-10T05:08:24.709Z,7.70
2022-11-10T05:10:51.291Z,7.60
2022-11-10T05:13:14.831Z,7.60
2022-11-10T05:15:41.476Z,7.50
2022-11-10T05:18:04.958Z,7.60
2022-11-10T05:20:29.741Z,7.60
2022-11-10T05:23:08.074Z,7.60
2022-11-10T05:25:32.021Z,7.60
2022-11-10T05:27:58.297Z,7.60
2022-11-10T05:30:22.433Z,7.60
2022-11-10T05:32:46.584Z,7.50
2022-11-10T05:35:11.938Z,7.60
2022-11-10T05:37:35.461Z,7.60
2022-11-10T05:39:59.164Z,7.60
2022-11-10T05:42:22.938Z,7.60
2022-11-10T05:44:49.727Z,7.60
2022-11-10T05:47:13.684Z,7.60
2022-11-10T05:49:37.227Z,7.60
2022-11-10T05:52:01.163Z,7.70
2022-11-10T05:54:24.858Z,7.80
2022-11-10T05:56:48.951Z,7.70
2022-11-10T05:59:13.103Z,7.70
2022-11-10T06:01:39.008Z,7.80
2022-11-10T06:04:03.016Z,7.80
2022-11-10T06:06:26.629Z,7.80
2022-11-10T06:08:51.034Z,7.80
2022-11-10T06:11:14.865Z,7.90
2022-11-10T06:13:38.441Z,7.90
2022-11-10T06:16:03.916Z,7.90
2022-11-10T06:18:30.273Z,7.90
2022-11-10T06:20:54.314Z,8.00
2022-11-10T06:23:19.330Z,8.00
2022-11-10T06:25:44.814Z,8.00
2022-11-10T06:27:53.607Z,8.00
2022-11-10T06:30:18.623Z,8.00
2022-11-10T06:32:46.785Z,8.00
2022-11-10T06:35:13.111Z,8.00
2022-11-10T06:37:38.758Z,8.10
2022-11-10T06:40:02.355Z,8.10
2022-11-10T06:42:26.341Z,8.20
2022-11-10T06:44:50.518Z,8.20
2022-11-10T06:47:14.394Z,8.20
2022-11-10T06:49:38.146Z,8.30
2022-11-10T06:52:05.047Z,8.40
2022-11-10T06:54:28.870Z,8.40
2022-11-10T06:56:53.074Z,8.40
2022-11-10T06:59:16.880Z,8.40
2022-11-10T07:01:40.779Z,8.40
2022-11-10T07:04:19.331Z,8.40
2022-11-10T07:06:43.796Z,8.50
2022-11-10T07:09:10.105Z,8.50
2022-11-10T07:11:33.926Z,8.50
2022-11-10T07:13:57.828Z,8.50
2022-11-10T07:16:24.419Z,8.50
2022-11-10T07:18:50.848Z,8.50
2022-11-10T07:21:14.793Z,8.60
2022-11-10T07:23:38.489Z,8.60
2022-11-10T07:26:05.497Z,8.60
2022-11-10T07:28:30.373Z,8.60
2022-11-10T07:30:55.183Z,8.60
2022-11-10T07:33:18.988Z,8.60
2022-11-10T07:35:43.555Z,8.60
2022-11-10T07:38:12.291Z,8.70
2022-11-10T07:40:37.764Z,8.70
2022-11-10T07:43:04.748Z,8.80
2022-11-10T07:45:28.914Z,8.80
2022-11-10T07:47:53.029Z,8.80
2022-11-10T07:50:16.965Z,8.80
2022-11-10T07:52:40.839Z,8.90
2022-11-10T07:55:04.525Z,8.90
2022-11-10T07:57:28.110Z,8.90
2022-11-10T07:59:57.961Z,8.90
2022-11-10T08:02:22.340Z,8.90
2022-11-10T08:04:45.982Z,8.90
2022-11-10T08:07:10.061Z,8.80
2022-11-10T08:09:33.659Z,8.80
2022-11-10T08:11:57.779Z,8.80
2022-11-10T08:14:21.703Z,8.90
2022-11-10T08:16:47.869Z,8.90
2022-11-10T08:19:13.226Z,9.00
2022-11-10T08:21:37.417Z,9.00
2022-11-10T08:24:01.014Z,9.20
2022-11-10T08:26:24.871Z,9.30
2022-11-10T08:28:48.490Z,9.30
2022-11-10T08:31:12.603Z,9.30
2022-11-10T08:33:38.719Z,9.40
2022-11-10T08:36:05.352Z,9.30
2022-11-10T08:38:29.869Z,9.30
2022-11-10T08:40:53.791Z,9.40
2022-11-10T08:43:19.409Z,9.40
2022-11-10T08:45:46.839Z,9.40
2022-11-10T08:48:15.182Z,9.40
2022-11-10T08:50:42.721Z,9.40
2022-11-10T08:53:08.888Z,9.40
2022-11-10T08:55:32.922Z,9.50
2022-11-10T08:58:03.026Z,9.50
2022-11-10T09:00:28.576Z,9.60
2022-11-10T09:02:53.002Z,9.60
2022-11-10T09:05:17.165Z,9.50
2022-11-10T09:07:49.995Z,9.70
2022-11-10T09:10:15.026Z,9.70
2022-11-10T09:12:39.654Z,9.60
2022-11-10T09:15:03.529Z,9.60
2022-11-10T09:17:27.576Z,9.60
2022-11-10T09:19:51.936Z,9.60
2022-11-10T09:22:15.683Z,9.70
2022-11-10T09:24:42.034Z,9.80
2022-11-10T09:27:06.814Z,9.80
2022-11-10T09:29:31.166Z,9.80
2022-11-10T09:31:54.954Z,9.80
2022-11-10T09:34:18.794Z,9.80
2022-11-10T09:36:43.007Z,9.90
2022-11-10T09:39:07.918Z,9.90
2022-11-10T09:41:34.255Z,9.90
2022-11-10T09:44:05.878Z,10.10
2022-11-10T09:46:35.233Z,10.20
2022-11-10T09:49:08.463Z,10.20
2022-11-10T09:51:37.269Z,10.40
2022-11-10T09:54:06.050Z,10.40
2022-11-10T09:56:37.296Z,10.20
2022-11-10T09:59:00.811Z,10.30
2022-11-10T10:01:36.170Z,10.40
2022-11-10T10:04:14.892Z,10.30
2022-11-10T10:07:09.627Z,10.30
2022-11-10T10:09:42.445Z,10.30
2022-11-10T10:12:24.688Z,10.30
2022-11-10T10:15:05.856Z,10.40
2022-11-10T10:17:41.101Z,10.40
2022-11-10T10:20:15.555Z,10.50
2022-11-10T10:23:08.006Z,10.70
2022-11-10T10:25:31.937Z,10.70
2022-11-10T10:28:08.283Z,10.70
2022-11-10T10:30:33.332Z,10.70
2022-11-10T10:33:03.339Z,10.50
2022-11-10T10:35:27.723Z,10.70
2022-11-10T10:37:55.641Z,10.70
2022-11-10T10:40:22.864Z,10.70
2022-11-10T10:42:46.456Z,10.50
2022-11-10T10:45:26.297Z,10.60
2022-11-10T10:47:52.313Z,10.70
2022-11-10T10:50:35.714Z,10.90
2022-11-10T10:53:17.237Z,10.90
2022-11-10T10:55:41.506Z,11.30
2022-11-10T10:58:07.638Z,11.40
2022-11-10T11:00:34.494Z,11.30
2022-11-10T11:03:05.680Z,11.20
2022-11-10T11:05:29.783Z,11.30
2022-11-10T11:07:58.706Z,11.50
2022-11-10T11:10:26.279Z,11.50
2022-11-10T11:12:49.758Z,11.60
2022-11-10T11:15:26.570Z,11.80
2022-11-10T11:18:01.511Z,12.00
2022-11-10T11:20:33.832Z,12.10
2022-11-10T11:23:06.118Z,12.00
2022-11-10T11:25:36.430Z,11.90
2022-11-10T11:28:13.602Z,11.90
2022-11-10T11:30:54.045Z,11.80
2022-11-10T11:33:33.127Z,11.80
2022-11-10T11:35:50.939Z,11.90
2022-11-10T11:38:17.990Z,11.80
2022-11-10T11:40:56.540Z,11.70
2022-11-10T11:43:57.480Z,11.70
2022-11-10T11:46:33.686Z,11.70
2022-11-10T11:49:25.861Z,11.50
2022-11-10T11:51:58.546Z,11.30
2022-11-10T11:54:31.684Z,11.50
2022-11-10T11:57:02.227Z,11.60
2022-11-10T11:59:43.284Z,11.80
2022-11-10T12:02:38.675Z,11.80
2022-11-10T12:05:20.087Z,11.50
2022-11-10T12:07:57.545Z,11.40
2022-11-10T12:10:33.884Z,11.30
2022-11-10T12:13:19.515Z,11.30
2022-11-10T12:15:56.541Z,11.40
2022-11-10T12:18:34.081Z,11.60
2022-11-10T12:21:15.574Z,11.50
2022-11-10T12:23:55.509Z,11.40
2022-11-10T12:26:33.015Z,11.60
2022-11-10T12:29:07.952Z,11.90
2022-11-10T12:31:38.196Z,12.00
2022-11-10T12:34:07.695Z,12.00
2022-11-10T12:36:36.163Z,12.30
2022-11-10T12:39:06.394Z,12.40
2022-11-10T12:41:45.670Z,12.60
2022-11-10T12:44:30.767Z,12.60
2022-11-10T12:47:00.551Z,12.50
2022-11-10T12:49:33.788Z,12.70
2022-11-10T12:52:09.666Z,12.70
2022-11-10T12:54:37.182Z,12.80
2022-11-10T12:57:07.099Z,12.90
2022-11-10T12:59:37.414Z,12.80
2022-11-10T13:02:09.002Z,12.80
2022-11-10T13:04:35.251Z,12.90
2022-11-10T13:07:12.941Z,12.90
2022-11-10T13:09:40.579Z,12.70
2022-11-10T13:12:18.943Z,12.90
2022-11-10T13:14:42.916Z,12.80
2022-11-10T13:17:07.641Z,12.70
2022-11-10T13:19:54.208Z,12.80
2022-11-10T13:22:41.355Z,13.00
2022-11-10T13:29:02.999Z,13.10
2022-11-10T13:31:53.857Z,12.90
2022-11-10T13:34:33.246Z,12.90
2022-11-10T13:36:57.078Z,12.90
2022-11-10T13:39:31.725Z,12.90
2022-11-10T13:42:05.778Z,12.90
2022-11-10T13:44:32.432Z,12.70
2022-11-10T13:47:35.245Z,12.40
2022-11-10T13:50:15.217Z,12.40
2022-11-10T13:52:59.595Z,12.70
2022-11-10T13:55:49.217Z,13.00
2022-11-10T13:58:21.448Z,13.00
2022-11-10T14:00:52.982Z,12.90
2022-11-10T14:03:57.481Z,13.00
2022-11-10T14:06:26.580Z,12.90
2022-11-10T14:08:57.872Z,13.00
2022-11-10T14:11:36.868Z,12.80
2022-11-10T14:14:07.318Z,12.70
2022-11-10T14:16:35.768Z,12.80
2022-11-10T14:19:07.723Z,12.80
2022-11-10T14:21:41.546Z,13.00
2022-11-10T14:24:17.548Z,13.20
2022-11-10T14:26:49.233Z,13.00
2022-11-10T14:29:33.464Z,13.20
2022-11-10T14:31:57.473Z,13.20
2022-11-10T14:34:23.744Z,13.20
2022-11-10T14:36:57.324Z,13.20
2022-11-10T14:39:21.282Z,13.10
2022-11-10T14:41:52.783Z,13.10
2022-11-10T14:44:25.090Z,13.10
2022-11-10T14:46:48.514Z,12.90
2022-11-10T14:49:14.232Z,12.80
2022-11-10T14:51:38.123Z,12.80
2022-11-10T14:54:03.000Z,12.80
2022-11-10T14:56:30.060Z,12.90
2022-11-10T14:58:59.118Z,12.90
2022-11-10T15:01:34.022Z,12.70
2022-11-10T15:03:59.476Z,12.60
2022-11-10T15:06:25.350Z,12.50
2022-11-10T15:08:49.302Z,12.40
2022-11-10T15:11:40.661Z,12.40
2022-11-10T15:14:07.204Z,12.40
2022-11-10T15:16:34.546Z,12.30
2022-11-10T15:18:58.952Z,12.20
2022-11-10T15:21:25.289Z,12.00
2022-11-10T15:23:56.302Z,11.90
2022-11-10T15:26:24.213Z,11.80
2022-11-10T15:28:50.580Z,11.80
2022-11-10T15:31:25.702Z,11.80
2022-11-10T15:33:53.293Z,11.70
2022-11-10T15:36:20.238Z,11.70
2022-11-10T15:38:43.715Z,11.60
2022-11-10T15:41:17.152Z,11.40
2022-11-10T15:43:41.543Z,11.40
2022-11-10T15:46:17.877Z,11.30
2022-11-10T15:48:51.220Z,11.20
2022-11-10T15:51:23.020Z,10.90
2022-11-10T15:53:53.703Z,10.80
2022-11-10T15:56:18.381Z,10.70
2022-11-10T15:58:42.987Z,10.50
2022-11-10T16:01:07.690Z,10.50
2022-11-10T16:03:33.454Z,10.50
2022-11-10T16:06:01.383Z,10.30
2022-11-10T16:08:26.734Z,10.00
2022-11-10T16:10:54.249Z,10.00
2022-11-10T16:13:24.423Z,9.40
2022-11-10T16:15:48.853Z,9.70
2022-11-10T16:18:16.232Z,9.90
2022-11-10T16:20:40.747Z,10.00
2022-11-10T16:23:07.179Z,9.90
2022-11-10T16:25:32.529Z,9.90
2022-11-10T16:27:56.593Z,9.90
2022-11-10T16:30:20.819Z,10.00
2022-11-10T16:32:46.449Z,9.90
2022-11-10T16:35:16.005Z,9.80
2022-11-10T16:37:39.725Z,9.80
2022-11-10T16:40:14.785Z,9.80
2022-11-10T16:42:38.638Z,9.90
2022-11-10T16:45:03.178Z,9.80
2022-11-10T16:47:26.764Z,9.80
2022-11-10T16:49:52.519Z,9.80
2022-11-10T16:52:19.221Z,9.70
2022-11-10T16:54:42.620Z,9.70
2022-11-10T16:57:16.298Z,9.70
2022-11-10T16:59:40.003Z,9.70
2022-11-10T17:02:03.917Z,9.70
2022-11-10T17:04:28.065Z,9.70
2022-11-10T17:06:51.723Z,9.60
2022-11-10T17:09:21.511Z,9.60
2022-11-10T17:11:45.703Z,9.60
2022-11-10T17:14:14.084Z,9.60
2022-11-10T17:16:43.350Z,9.60
2022-11-10T17:19:10.734Z,9.50
2022-11-10T17:21:36.935Z,9.60
2022-11-10T17:24:02.461Z,9.40
2022-11-10T17:26:26.880Z,8.90
2022-11-10T17:28:50.762Z,8.50
2022-11-10T17:31:16.780Z,8.40
2022-11-10T17:33:40.711Z,8.50
2022-11-10T17:36:07.546Z,8.70
2022-11-10T17:38:33.706Z,8.90
2022-11-10T17:40:58.543Z,8.90
2022-11-10T17:43:23.828Z,9.00
2022-11-10T17:45:47.899Z,9.00
2022-11-10T17:48:14.536Z,8.90
2022-11-10T17:50:40.231Z,8.80
2022-11-10T17:53:04.943Z,8.80
2022-11-10T17:55:34.290Z,8.80
2022-11-10T17:57:58.849Z,8.80
2022-11-10T18:00:23.608Z,8.80
2022-11-10T18:02:55.006Z,8.70
2022-11-10T18:05:22.016Z,8.70
2022-11-10T18:07:46.239Z,8.70
2022-11-10T18:10:14.221Z,8.60
2022-11-10T18:12:38.539Z,8.40
2022-11-10T18:15:02.318Z,7.90
2022-11-10T18:17:26.819Z,7.70
2022-11-10T18:19:50.184Z,7.70
2022-11-10T18:22:16.296Z,7.70
2022-11-10T18:24:40.282Z,7.80
2022-11-10T18:27:04.042Z,7.90
2022-11-10T18:29:28.118Z,7.70
2022-11-10T18:31:51.752Z,7.80
2022-11-10T18:34:15.367Z,7.70
2022-11-10T18:36:39.312Z,7.60
2022-11-10T18:39:05.741Z,7.70
2022-11-10T18:41:41.685Z,7.40
2022-11-10T18:44:05.794Z,7.40
2022-11-10T18:46:10.742Z,7.60
2022-11-10T18:48:37.236Z,7.70
2022-11-10T18:51:01.401Z,7.80
2022-11-10T18:53:25.426Z,7.90
2022-11-10T18:55:59.146Z,7.80
2022-11-10T18:58:23.357Z,7.50
2022-11-10T19:00:47.089Z,7.40
2022-11-10T19:03:10.633Z,7.10
2022-11-10T19:05:34.313Z,7.00
2022-11-10T19:07:58.153Z,7.20
2022-11-10T19:10:21.930Z,6.60
2022-11-10T19:12:48.196Z,6.40
2022-11-10T19:15:12.138Z,6.50
2022-11-10T19:17:36.140Z,6.80
2022-11-10T19:19:59.853Z,7.00
2022-11-10T19:22:23.688Z,7.10
2022-11-10T19:25:06.680Z,7.10
2022-11-10T19:27:31.857Z,7.20
2022-11-10T19:29:57.946Z,7.30
2022-11-10T19:32:24.853Z,7.20
2022-11-10T19:34:49.527Z,7.30
2022-11-10T19:37:12.904Z,7.30
2022-11-10T19:39:36.705Z,7.30
2022-11-10T19:42:00.552Z,7.40
2022-11-10T19:44:24.734Z,7.30
2022-11-10T19:46:50.963Z,7.30
2022-11-10T19:49:14.944Z,7.40
2022-11-10T19:51:38.928Z,7.30
2022-11-10T19:54:05.157Z,7.30
2022-11-10T19:56:31.667Z,7.30
2022-11-10T19:58:55.727Z,7.20
2022-11-10T20:01:22.400Z,7.30
2022-11-10T20:03:48.773Z,7.30
2022-11-10T20:06:15.961Z,7.30
2022-11-10T20:08:39.807Z,7.30
2022-11-10T20:11:05.370Z,7.20
2022-11-10T20:13:28.966Z,7.20
2022-11-10T20:15:52.766Z,6.90
2022-11-10T20:18:16.718Z,6.60
2022-11-10T20:20:43.504Z,6.80
2022-11-10T20:23:08.912Z,6.80
2022-11-10T20:25:33.067Z,6.80
2022-11-10T20:27:57.510Z,6.90
2022-11-10T20:30:23.828Z,6.90
2022-11-10T20:32:47.718Z,6.90
2022-11-10T20:35:11.945Z,6.80
2022-11-10T20:37:38.190Z,6.80
2022-11-10T20:40:02.560Z,6.60
2022-11-10T20:42:26.076Z,6.40
2022-11-10T20:44:49.737Z,6.30
2022-11-10T20:47:13.616Z,6.20
2022-11-10T20:49:37.473Z,6.20
2022-11-10T20:52:00.962Z,6.30
2022-11-10T20:54:27.451Z,6.30
2022-11-10T20:56:51.128Z,6.40
2022-11-10T20:59:14.594Z,6.30
2022-11-10T21:01:38.104Z,6.10
2022-11-10T21:04:02.753Z,5.90
2022-11-10T21:06:27.037Z,6.00
2022-11-10T21:08:50.706Z,6.10
2022-11-10T21:11:37.015Z,6.30
2022-11-10T21:14:01.593Z,6.40
2022-11-10T21:16:25.180Z,6.40
2022-11-10T21:18:49.132Z,6.50
2022-11-10T21:21:23.879Z,6.40
2022-11-10T21:23:47.445Z,6.10
2022-11-10T21:26:11.306Z,6.30
2022-11-10T21:28:38.064Z,6.40
2022-11-10T21:31:06.516Z,6.50
2022-11-10T21:33:30.103Z,6.50
2022-11-10T21:35:54.644Z,6.50
2022-11-10T21:38:18.344Z,6.50
2022-11-10T21:40:42.202Z,6.50
2022-11-10T21:43:05.674Z,6.50
2022-11-10T21:45:32.332Z,6.50
2022-11-10T21:47:56.267Z,6.50
2022-11-10T21:50:21.789Z,6.50
2022-11-10T21:52:45.742Z,6.50
2022-11-10T21:55:12.158Z,6.40
2022-11-10T21:57:36.188Z,6.40
2022-11-10T22:00:00.389Z,6.40
2022-11-10T22:02:26.648Z,6.50
2022-11-10T22:04:50.920Z,6.50
2022-11-10T22:07:26.689Z,6.50
2022-11-10T22:10:03.556Z,6.40
2022-11-10T22:12:39.389Z,5.80
2022-11-10T22:15:16.147Z,5.80
2022-11-10T22:17:54.527Z,5.60
2022-11-10T22:20:18.800Z,5.80
2022-11-10T22:22:42.259Z,5.80
2022-11-10T22:25:06.398Z,5.70
2022-11-10T22:27:29.881Z,5.60
2022-11-10T22:29:54.276Z,5.30
2022-11-10T22:32:18.104Z,5.20
2022-11-10T22:34:45.004Z,5.20
2022-11-10T22:37:08.623Z,5.40
2022-11-10T22:39:45.229Z,5.10
2022-11-10T22:42:21.682Z,5.10
2022-11-10T22:44:45.302Z,5.20
2022-11-10T22:47:09.816Z,5.20
2022-11-10T22:49:33.631Z,5.20
2022-11-10T22:52:00.297Z,5.20
2022-11-10T22:54:26.205Z,5.20
2022-11-10T22:56:51.428Z,5.00
2022-11-10T22:59:16.319Z,5.30
2022-11-10T23:01:40.802Z,4.80
2022-11-10T23:04:05.591Z,4.80
2022-11-10T23:06:30.231Z,4.60
2022-11-10T23:08:57.520Z,4.80
2022-11-10T23:11:24.093Z,5.00
2022-11-10T23:13:50.217Z,5.00
2022-11-10T23:16:16.270Z,4.90
2022-11-10T23:18:42.469Z,5.10
2022-11-10T23:21:08.709Z,5.20
2022-11-10T23:23:36.217Z,5.30
2022-11-10T23:26:05.492Z,5.30
2022-11-10T23:28:31.341Z,5.00
2022-11-10T23:30:55.142Z,5.20
2022-11-10T23:33:20.820Z,5.20
2022-11-10T23:35:44.690Z,4.90
2022-11-10T23:38:09.236Z,4.80
2022-11-10T23:40:33.046Z,4.60
2022-11-10T23:42:59.919Z,4.60
2022-11-10T23:45:27.274Z,4.70
2022-11-10T23:47:53.675Z,4.80
2022-11-10T23:50:17.315Z,4.70
2022-11-10T23:52:41.612Z,4.70
2022-11-10T23:55:05.998Z,4.70
2022-11-10T23:57:29.364Z,4.90
2022-11-10T23:59:56.574Z,5.00
